createdAt,value
2019-01-12T00:00:03.574Z,45.4
2019-01-12T00:10:18.342Z,46.2
2019-01-12T00:20:32.640Z,46.7
2019-01-12T00:30:47.439Z,47.3
2019-01-12T00:41:02.763Z,48.9
2019-01-12T00:51:16.923Z,49.5
2019-01-12T01:01:32.465Z,50.1
2019-01-12T01:11:47.462Z,51.6
2019-01-12T01:22:01.674Z,52.4
2019-01-12T01:32:16.195Z,54.7
2019-01-12T01:42:30.750Z,56.5
2019-01-12T01:52:46.429Z,55.9
2019-01-12T02:03:00.504Z,54.5
2019-01-12T02:13:14.425Z,53.4
2019-01-12T02:23:28.324Z,52.3
2019-01-12T02:33:42.763Z,51.5
2019-01-12T02:43:56.555Z,50.6
2019-01-12T02:54:10.765Z,50
2019-01-12T03:04:25.583Z,49.5
2019-01-12T03:14:40.039Z,49.6
2019-01-12T03:24:54.241Z,49.6
2019-01-12T03:35:09.828Z,49.4
2019-01-12T03:45:24.857Z,49.6
2019-01-12T03:55:38.847Z,49.9
2019-01-12T04:05:53.897Z,50.9
2019-01-12T04:16:08.217Z,52.2
2019-01-12T04:26:23.646Z,51.8
2019-01-12T04:36:37.693Z,51
2019-01-12T04:46:51.726Z,51.3
2019-01-12T04:57:06.496Z,51
2019-01-12T05:07:20.177Z,50.5
2019-01-12T05:17:33.915Z,51.7
2019-01-12T05:27:48.125Z,55.5
2019-01-12T05:38:02.368Z,58.4
2019-01-12T05:48:17.302Z,59.1
2019-01-12T05:58:32.653Z,58.9
2019-01-12T06:08:46.966Z,57.3
2019-01-12T06:19:02.187Z,56.7
2019-01-12T06:29:17.486Z,56.5
2019-01-12T06:39:32.533Z,56.8
2019-01-12T06:49:47.610Z,57.8
2019-01-12T07:00:01.372Z,58.9
2019-01-12T07:10:16.257Z,59.5
2019-01-12T07:20:31.581Z,61.5
2019-01-12T07:30:46.820Z,61.1
2019-01-12T07:41:01.028Z,61.1
2019-01-12T07:51:14.949Z,61.9
2019-01-12T08:01:30.592Z,63.8
2019-01-12T08:11:45.354Z,66.7
2019-01-12T08:21:59.862Z,66.4
2019-01-12T08:32:13.636Z,69.1
2019-01-12T08:42:27.551Z,71.7
2019-01-12T08:52:42.417Z,75.6
2019-01-12T09:02:56.536Z,74.8
2019-01-12T09:13:10.241Z,76.2
2019-01-12T09:23:24.879Z,71.6
2019-01-12T09:33:39.639Z,66.5
2019-01-12T09:43:53.596Z,65.8
2019-01-12T09:54:07.761Z,64.5
2019-01-12T10:04:22.528Z,62.8
2019-01-12T10:14:37.027Z,60.9
2019-01-12T10:24:52.197Z,60.5
2019-01-12T10:35:06.281Z,58.8
2019-01-12T10:45:21.298Z,58.5
2019-01-12T10:55:36.057Z,58.2
2019-01-12T11:05:49.998Z,58.1
2019-01-12T11:16:04.739Z,58.6
2019-01-12T11:26:20.323Z,58.5
2019-01-12T11:36:35.420Z,57.9
2019-01-12T11:46:49.300Z,56.8
2019-01-12T11:57:03.872Z,57
2019-01-12T12:07:18.550Z,56.1
2019-01-12T12:17:33.456Z,54.6
2019-01-12T12:27:48.946Z,54.7
2019-01-12T12:38:03.688Z,54.4
2019-01-12T12:48:17.860Z,53.8
2019-01-12T12:58:33.492Z,53.5
2019-01-12T13:08:47.637Z,53.2
2019-01-12T13:19:01.702Z,53.2
2019-01-12T13:29:15.816Z,52.5
2019-01-12T13:39:31.040Z,52.3
2019-01-12T13:49:44.938Z,51.7
2019-01-12T13:59:58.766Z,51.6
2019-01-12T14:10:14.286Z,52
2019-01-12T14:20:29.148Z,51.1
2019-01-12T14:30:43.704Z,51.2
2019-01-12T14:40:58.159Z,50.6
2019-01-12T14:51:13.481Z,49.9
2019-01-12T15:01:27.359Z,49.7
2019-01-12T15:11:42.331Z,50.1
2019-01-12T15:21:56.942Z,51.2
2019-01-12T15:32:11.408Z,53.3
2019-01-12T15:42:25.260Z,56
2019-01-12T15:52:39.950Z,58.2
2019-01-12T16:02:53.972Z,56
2019-01-12T16:13:09.594Z,54.7
2019-01-12T16:23:23.600Z,53.5
2019-01-12T16:33:38.404Z,53.9
2019-01-12T16:43:53.327Z,55.5
2019-01-12T16:54:08.930Z,55.1
2019-01-12T17:04:22.883Z,55.4
2019-01-12T17:14:38.056Z,58.4
